createdAt,value
2017-08-13T00:01:46.520Z,20.35
2017-08-13T00:04:14.388Z,20.15
2017-08-13T00:06:42.382Z,20.03
2017-08-13T00:09:10.245Z,19.91
2017-08-13T00:11:38.145Z,19.95
2017-08-13T00:14:05.858Z,19.97
2017-08-13T00:16:33.667Z,20.15
2017-08-13T00:19:01.545Z,20.50
2017-08-13T00:21:29.381Z,20.67
2017-08-13T00:23:57.126Z,20.74
2017-08-13T00:26:24.998Z,20.70
2017-08-13T00:28:52.861Z,20.79
2017-08-13T00:31:20.826Z,20.73
2017-08-13T00:33:48.536Z,20.92
2017-08-13T00:36:16.260Z,20.81
2017-08-13T00:38:43.873Z,20.81
2017-08-13T00:41:11.523Z,20.48
2017-08-13T00:43:39.361Z,20.11
2017-08-13T00:46:07.055Z,20.19
2017-08-13T00:48:34.706Z,20.28
2017-08-13T00:51:02.380Z,20.37
2017-08-13T00:53:30.125Z,20.22
2017-08-13T00:55:58.123Z,20.13
2017-08-13T00:58:25.961Z,20.05
2017-08-13T01:00:53.905Z,20.32
2017-08-13T01:03:21.919Z,20.41
2017-08-13T01:05:49.584Z,20.30
2017-08-13T01:08:17.241Z,20.27
2017-08-13T01:10:45.095Z,20.31
2017-08-13T01:13:12.841Z,20.40
2017-08-13T01:15:40.807Z,20.50
2017-08-13T01:18:08.494Z,20.58
2017-08-13T01:20:36.487Z,20.78
2017-08-13T01:23:04.444Z,20.88
2017-08-13T01:25:32.474Z,20.88
2017-08-13T01:28:00.385Z,20.84
2017-08-13T01:30:28.235Z,20.77
2017-08-13T01:32:56.177Z,20.76
2017-08-13T01:35:23.982Z,20.73
2017-08-13T01:37:51.850Z,20.79
2017-08-13T01:40:19.923Z,21.03
2017-08-13T01:42:47.646Z,21.02
2017-08-13T01:45:15.636Z,21.05
2017-08-13T01:47:43.379Z,20.93
2017-08-13T01:50:11.368Z,20.97
2017-08-13T01:52:39.257Z,21.12
2017-08-13T01:55:07.156Z,21.16
2017-08-13T01:57:34.781Z,21.23
2017-08-13T02:00:02.589Z,21.25
2017-08-13T02:02:30.622Z,21.26
2017-08-13T02:04:58.352Z,21.30
2017-08-13T02:07:26.671Z,21.29
2017-08-13T02:09:54.625Z,21.28
2017-08-13T02:12:24.339Z,21.35
2017-08-13T02:14:52.241Z,21.49
2017-08-13T02:17:20.231Z,21.57
2017-08-13T02:19:47.941Z,21.71
2017-08-13T02:22:15.808Z,21.66
2017-08-13T02:24:43.445Z,21.74
2017-08-13T02:27:11.202Z,21.80
2017-08-13T02:29:39.166Z,21.86
2017-08-13T02:32:06.912Z,21.80
2017-08-13T02:34:34.895Z,21.81
2017-08-13T02:37:02.720Z,21.87
2017-08-13T02:39:30.671Z,21.82
2017-08-13T02:41:58.334Z,21.80
2017-08-13T02:44:26.403Z,21.81
2017-08-13T02:46:54.237Z,21.83
2017-08-13T02:49:21.934Z,21.77
2017-08-13T02:51:49.788Z,21.80
2017-08-13T02:54:17.637Z,21.80
2017-08-13T02:56:45.297Z,21.72
2017-08-13T02:59:13.021Z,21.69
2017-08-13T03:01:41.064Z,21.68
2017-08-13T03:04:08.723Z,21.69
2017-08-13T03:06:36.791Z,21.68
2017-08-13T03:09:04.718Z,21.62
2017-08-13T03:11:32.678Z,21.61
2017-08-13T03:14:00.501Z,21.62
2017-08-13T03:16:28.440Z,21.71
2017-08-13T03:18:56.121Z,21.75
2017-08-13T03:21:23.993Z,21.81
2017-08-13T03:23:52.065Z,21.80
2017-08-13T03:26:19.730Z,21.80
2017-08-13T03:28:47.455Z,21.82
2017-08-13T03:31:15.420Z,22.07
2017-08-13T03:33:43.326Z,22.22
2017-08-13T03:36:10.988Z,22.22
2017-08-13T03:38:38.854Z,22.27
2017-08-13T03:41:06.588Z,22.38
2017-08-13T03:43:34.504Z,22.40
2017-08-13T03:46:02.460Z,22.62
2017-08-13T03:48:30.328Z,22.74
2017-08-13T03:50:57.922Z,22.80
2017-08-13T03:53:25.898Z,22.86
2017-08-13T03:55:53.887Z,22.94
2017-08-13T03:58:21.459Z,23.05
2017-08-13T04:00:49.147Z,23.15
2017-08-13T04:03:17.119Z,23.18
2017-08-13T04:05:44.988Z,23.21
2017-08-13T04:08:13.043Z,23.20
2017-08-13T04:10:40.743Z,23.24
2017-08-13T04:13:08.378Z,23.30
2017-08-13T04:15:36.303Z,23.35
2017-08-13T04:18:04.318Z,23.48
2017-08-13T04:20:32.158Z,23.51
2017-08-13T04:23:00.053Z,23.55
2017-08-13T04:25:27.920Z,23.60
2017-08-13T04:27:55.638Z,23.39
2017-08-13T04:30:23.597Z,23.31
2017-08-13T04:32:51.367Z,23.36
2017-08-13T04:35:19.389Z,23.33
2017-08-13T04:37:47.404Z,23.58
2017-08-13T04:40:15.221Z,23.68
2017-08-13T04:42:42.987Z,23.88
2017-08-13T04:45:10.850Z,24.03
2017-08-13T04:47:38.506Z,24.07
2017-08-13T04:50:06.176Z,24.11
2017-08-13T04:52:33.935Z,23.99
2017-08-13T04:55:01.913Z,23.82
2017-08-13T04:57:29.763Z,23.95
2017-08-13T04:59:57.439Z,24.15
2017-08-13T05:02:25.099Z,24.31
2017-08-13T05:04:52.846Z,24.30
2017-08-13T05:07:20.631Z,24.38
2017-08-13T05:09:48.451Z,24.29
2017-08-13T05:12:16.338Z,24.19
2017-08-13T05:14:44.086Z,24.47
2017-08-13T05:17:11.894Z,24.85
2017-08-13T05:19:39.478Z,25.23
2017-08-13T05:22:07.159Z,25.55
2017-08-13T05:24:34.872Z,25.84
2017-08-13T05:27:02.847Z,26.29
2017-08-13T05:29:30.821Z,26.77
2017-08-13T05:31:58.781Z,26.83
2017-08-13T05:34:26.552Z,26.89
2017-08-13T05:36:54.260Z,27.50
2017-08-13T05:39:22.285Z,27.38
2017-08-13T05:41:49.999Z,27.86
2017-08-13T05:44:17.866Z,28.44
2017-08-13T05:46:45.733Z,27.78
2017-08-13T05:49:13.754Z,27.47
2017-08-13T05:51:41.415Z,27.11
2017-08-13T05:54:09.258Z,27.56
2017-08-13T05:56:36.934Z,28.10
2017-08-13T05:59:04.794Z,28.23
2017-08-13T06:01:32.512Z,27.61
2017-08-13T06:04:00.548Z,27.07
2017-08-13T06:06:28.610Z,27.13
2017-08-13T06:08:56.220Z,27.23
2017-08-13T06:11:23.936Z,26.74
2017-08-13T06:13:51.668Z,26.27
2017-08-13T06:16:19.339Z,26.37
2017-08-13T06:18:47.306Z,26.70
2017-08-13T06:21:14.985Z,26.59
2017-08-13T06:23:42.859Z,27.64
2017-08-13T06:26:10.461Z,28.46
2017-08-13T06:28:38.447Z,27.89
2017-08-13T06:31:06.463Z,27.88
2017-08-13T06:33:34.186Z,27.63
2017-08-13T06:36:02.201Z,27.61
2017-08-13T06:38:30.036Z,28.95
2017-08-13T06:40:57.612Z,30.38
2017-08-13T06:43:25.575Z,30.62
2017-08-13T06:45:53.462Z,32.40
2017-08-13T06:48:21.040Z,34.12
2017-08-13T06:50:48.784Z,34.53
2017-08-13T06:53:16.498Z,35.87
2017-08-13T06:55:44.301Z,35.29
2017-08-13T06:58:12.031Z,36.13
2017-08-13T07:00:39.832Z,36.09
2017-08-13T07:03:07.568Z,35.01
2017-08-13T07:05:35.527Z,33.79
2017-08-13T07:08:03.443Z,32.46
2017-08-13T07:10:31.105Z,31.96
2017-08-13T07:12:58.768Z,31.25
2017-08-13T07:15:26.601Z,30.99
2017-08-13T07:17:54.297Z,29.77
2017-08-13T07:20:22.130Z,28.90
2017-08-13T07:22:49.797Z,29.45
2017-08-13T07:25:17.489Z,29.17
2017-08-13T07:27:45.150Z,29.51
2017-08-13T07:30:13.205Z,29.65
2017-08-13T07:32:41.067Z,29.90
2017-08-13T07:35:08.748Z,29.84
2017-08-13T07:37:36.407Z,30.25
2017-08-13T07:40:04.250Z,29.64
2017-08-13T07:42:31.993Z,28.76
2017-08-13T07:45:00.009Z,28.90
2017-08-13T07:47:27.611Z,29.53
2017-08-13T07:49:55.542Z,29.75
2017-08-13T07:52:23.379Z,31.74
2017-08-13T07:54:51.067Z,32.57
2017-08-13T07:57:18.724Z,32.03
2017-08-13T07:59:46.372Z,31.55
2017-08-13T08:02:13.953Z,31.03
2017-08-13T08:04:41.772Z,32.32
2017-08-13T08:07:09.790Z,32.94
2017-08-13T08:09:37.625Z,32.62
2017-08-13T08:12:05.699Z,32.56
2017-08-13T08:14:33.593Z,33.54
2017-08-13T08:17:01.254Z,33.28
2017-08-13T08:19:28.913Z,32.83
2017-08-13T08:21:56.580Z,32.10
2017-08-13T08:24:24.241Z,31.24
2017-08-13T08:26:52.274Z,32.01
2017-08-13T08:29:20.186Z,32.09
2017-08-13T08:31:47.889Z,31.96
2017-08-13T08:34:15.753Z,31.77
2017-08-13T08:36:43.778Z,33.36
2017-08-13T08:39:11.366Z,33.74
2017-08-13T08:41:39.079Z,33.72
2017-08-13T08:44:06.763Z,34.26
2017-08-13T08:46:34.609Z,35.05
2017-08-13T08:49:02.241Z,33.92
2017-08-13T08:51:30.158Z,33.33
2017-08-13T08:53:57.812Z,31.69
2017-08-13T08:56:25.489Z,31.55
2017-08-13T08:58:53.140Z,31.24
2017-08-13T09:01:20.994Z,32.99
2017-08-13T09:03:48.660Z,34.34
2017-08-13T09:06:16.500Z,32.89
2017-08-13T09:08:44.321Z,32.00
2017-08-13T09:11:11.969Z,31.76
2017-08-13T09:13:39.548Z,31.69
2017-08-13T09:16:07.370Z,33.37
2017-08-13T09:18:34.989Z,35.18
2017-08-13T09:21:02.567Z,35.44
2017-08-13T09:23:30.369Z,35.15
2017-08-13T09:25:58.028Z,35.27
2017-08-13T09:28:25.697Z,34.34
2017-08-13T09:30:53.276Z,32.46
2017-08-13T09:33:21.416Z,31.49
2017-08-13T09:35:49.100Z,30.65
2017-08-13T09:38:16.948Z,30.11
2017-08-13T09:40:44.616Z,30.85
2017-08-13T09:43:12.225Z,32.69
2017-08-13T09:45:39.958Z,34.02
2017-08-13T09:48:07.672Z,33.00
2017-08-13T09:50:35.486Z,33.37
2017-08-13T09:53:03.138Z,34.66
2017-08-13T09:55:30.876Z,35.55
2017-08-13T09:57:58.867Z,33.36
2017-08-13T10:00:26.526Z,34.23
2017-08-13T10:02:54.203Z,34.82
2017-08-13T10:05:21.811Z,33.70
2017-08-13T10:07:49.505Z,33.56
2017-08-13T10:10:17.126Z,34.62
2017-08-13T10:12:45.023Z,34.22
2017-08-13T10:15:12.647Z,33.51
2017-08-13T10:17:40.380Z,33.94
2017-08-13T10:20:07.957Z,33.68
2017-08-13T10:22:35.910Z,33.87
2017-08-13T10:25:03.753Z,33.95
2017-08-13T10:27:31.632Z,32.73
2017-08-13T10:29:59.309Z,32.51
2017-08-13T10:32:27.032Z,31.14
2017-08-13T10:34:54.901Z,31.28
2017-08-13T10:37:22.565Z,31.98
2017-08-13T10:39:50.364Z,32.13
2017-08-13T10:42:18.098Z,31.59
2017-08-13T10:44:45.708Z,30.68
2017-08-13T10:47:13.397Z,30.18
2017-08-13T10:49:41.003Z,30.59
2017-08-13T10:52:08.591Z,30.73
2017-08-13T10:54:36.439Z,31.82
2017-08-13T10:57:04.216Z,32.66
2017-08-13T10:59:31.861Z,31.66
2017-08-13T11:01:59.525Z,31.01
2017-08-13T11:04:27.120Z,32.27
2017-08-13T11:06:54.840Z,33.32
2017-08-13T11:09:22.511Z,34.23
2017-08-13T11:11:50.359Z,34.11
2017-08-13T11:14:18.105Z,33.23
2017-08-13T11:16:46.024Z,32.52
2017-08-13T11:19:13.838Z,32.42
2017-08-13T11:21:41.842Z,33.14
2017-08-13T11:24:09.513Z,32.45
2017-08-13T11:26:37.162Z,32.08
2017-08-13T11:29:04.751Z,31.78
2017-08-13T11:31:32.601Z,32.02
2017-08-13T11:34:00.540Z,31.82
2017-08-13T11:36:28.531Z,30.00
2017-08-13T11:38:56.505Z,29.24
2017-08-13T11:41:24.175Z,29.08
2017-08-13T11:43:52.008Z,28.95
2017-08-13T11:46:19.682Z,28.90
2017-08-13T11:48:47.696Z,28.73
2017-08-13T11:51:15.539Z,28.80
2017-08-13T11:53:43.360Z,28.53
2017-08-13T11:56:10.954Z,28.58
2017-08-13T11:58:38.665Z,28.14
2017-08-13T12:01:06.693Z,28.05
2017-08-13T12:03:34.520Z,27.14
2017-08-13T12:06:02.221Z,27.15
2017-08-13T12:08:29.886Z,27.04
2017-08-13T12:10:57.798Z,27.05
2017-08-13T12:13:25.399Z,27.04
2017-08-13T12:15:53.020Z,26.96
2017-08-13T12:18:20.848Z,26.97
2017-08-13T12:20:48.596Z,27.00
2017-08-13T12:23:16.431Z,27.13
2017-08-13T12:25:44.131Z,27.08
2017-08-13T12:28:11.788Z,27.00
2017-08-13T12:30:39.511Z,27.05
2017-08-13T12:33:07.474Z,26.94
2017-08-13T12:35:35.376Z,26.84
2017-08-13T12:38:03.314Z,26.66
2017-08-13T12:40:31.121Z,26.37
2017-08-13T12:42:58.708Z,26.43
2017-08-13T12:45:26.448Z,26.25
2017-08-13T12:47:54.306Z,26.11
2017-08-13T12:50:21.964Z,25.95
2017-08-13T12:52:49.849Z,25.89
2017-08-13T12:55:17.503Z,25.58
2017-08-13T12:57:45.227Z,25.63
2017-08-13T13:00:13.048Z,25.70
2017-08-13T13:02:40.643Z,25.73
2017-08-13T13:05:08.473Z,25.71
2017-08-13T13:07:36.434Z,25.71
2017-08-13T13:10:04.028Z,25.77
2017-08-13T13:12:31.957Z,25.89
2017-08-13T13:14:59.673Z,25.72
2017-08-13T13:17:27.696Z,25.76
2017-08-13T13:19:55.526Z,25.58
2017-08-13T13:22:23.641Z,25.33
2017-08-13T13:24:51.241Z,25.13
2017-08-13T13:27:18.961Z,24.74
2017-08-13T13:29:46.824Z,24.56
2017-08-13T13:32:14.482Z,24.29
2017-08-13T13:34:42.151Z,24.14
2017-08-13T13:37:09.998Z,24.11
2017-08-13T13:39:37.877Z,24.17
2017-08-13T13:42:07.975Z,24.01
2017-08-13T13:44:35.730Z,23.87
2017-08-13T13:47:03.719Z,23.82
2017-08-13T13:49:31.600Z,23.85
2017-08-13T13:51:59.448Z,23.92
2017-08-13T13:54:27.119Z,24.08
2017-08-13T13:56:54.998Z,24.25
2017-08-13T13:59:22.732Z,24.42
2017-08-13T14:01:50.448Z,24.42
2017-08-13T14:04:18.397Z,24.41
2017-08-13T14:06:46.425Z,24.41
2017-08-13T14:09:14.126Z,24.31
2017-08-13T14:11:41.702Z,24.32
2017-08-13T14:14:09.660Z,24.38
2017-08-13T14:16:37.372Z,24.36
2017-08-13T14:19:05.339Z,24.19
2017-08-13T14:21:33.159Z,24.16
2017-08-13T14:24:01.123Z,24.11
2017-08-13T14:26:28.967Z,24.32
2017-08-13T14:28:56.856Z,24.43
2017-08-13T14:31:24.702Z,24.46
2017-08-13T14:33:52.442Z,24.65
2017-08-13T14:36:20.251Z,24.82
2017-08-13T14:38:47.898Z,25.02
2017-08-13T14:41:15.777Z,25.21
2017-08-13T14:43:43.417Z,25.67
2017-08-13T14:46:11.011Z,25.95
2017-08-13T14:48:38.583Z,26.09
2017-08-13T14:51:06.212Z,26.26
2017-08-13T14:53:33.808Z,26.37
2017-08-13T14:56:01.420Z,26.60
2017-08-13T14:58:29.053Z,26.75
2017-08-13T15:00:56.659Z,26.76
2017-08-13T15:03:24.260Z,26.54
2017-08-13T15:05:51.890Z,26.44
2017-08-13T15:08:19.481Z,26.22
2017-08-13T15:10:47.094Z,26.36
2017-08-13T15:13:14.816Z,26.20
2017-08-13T15:15:42.736Z,26.19
2017-08-13T15:18:10.672Z,25.79
2017-08-13T15:20:38.580Z,25.64
2017-08-13T15:23:06.287Z,25.54
2017-08-13T15:25:34.102Z,25.44
2017-08-13T15:28:02.140Z,25.35
2017-08-13T15:30:29.846Z,25.38
2017-08-13T15:32:57.704Z,25.31
2017-08-13T15:35:25.419Z,25.29
2017-08-13T15:37:53.028Z,25.19
2017-08-13T15:40:20.695Z,25.31
2017-08-13T15:42:48.558Z,25.35
2017-08-13T15:45:16.219Z,25.30
2017-08-13T15:47:43.805Z,25.23
2017-08-13T15:50:11.419Z,25.15
2017-08-13T15:52:39.271Z,25.03
2017-08-13T15:55:07.131Z,24.98
2017-08-13T15:57:34.943Z,24.97
2017-08-13T16:00:02.613Z,24.88
2017-08-13T16:02:30.263Z,24.84
2017-08-13T16:04:57.981Z,24.82
2017-08-13T16:07:25.608Z,24.73
2017-08-13T16:09:53.185Z,24.74
2017-08-13T16:12:20.878Z,24.64
2017-08-13T16:14:48.576Z,24.57
2017-08-13T16:17:16.290Z,24.55
2017-08-13T16:19:44.310Z,24.55
2017-08-13T16:22:12.143Z,24.41
2017-08-13T16:24:39.891Z,24.35
2017-08-13T16:27:07.917Z,24.29
2017-08-13T16:29:35.746Z,24.17
2017-08-13T16:32:03.649Z,24.10
2017-08-13T16:34:31.308Z,24.14
2017-08-13T16:36:58.969Z,24.02
2017-08-13T16:39:26.632Z,23.97
2017-08-13T16:41:54.497Z,23.76
2017-08-13T16:44:22.151Z,23.85
2017-08-13T16:46:49.990Z,23.76
2017-08-13T16:49:17.695Z,23.78
2017-08-13T16:51:45.351Z,23.77
2017-08-13T16:54:13.010Z,23.64
2017-08-13T16:56:40.676Z,23.60
2017-08-13T16:59:08.270Z,23.61
2017-08-13T17:01:36.000Z,23.51
2017-08-13T17:04:04.103Z,23.60
2017-08-13T17:06:31.732Z,23.62
2017-08-13T17:08:59.401Z,23.64
2017-08-13T17:11:27.060Z,23.66
2017-08-13T17:13:54.785Z,23.62
2017-08-13T17:16:22.791Z,23.79
2017-08-13T17:18:50.817Z,23.76
2017-08-13T17:21:18.524Z,23.63
2017-08-13T17:23:46.376Z,23.51
2017-08-13T17:26:14.042Z,23.42
2017-08-13T17:28:41.763Z,23.38
2017-08-13T17:31:09.787Z,23.35
2017-08-13T17:33:37.631Z,23.31
2017-08-13T17:36:05.363Z,23.36
2017-08-13T17:38:32.973Z,23.33
2017-08-13T17:41:00.842Z,23.34
2017-08-13T17:43:28.506Z,23.37
2017-08-13T17:45:56.578Z,23.39
2017-08-13T17:48:24.260Z,23.52
2017-08-13T17:50:52.109Z,23.56
2017-08-13T17:53:19.954Z,23.43
2017-08-13T17:55:47.840Z,23.41
2017-08-13T17:58:15.501Z,23.39
2017-08-13T18:00:43.169Z,23.33
2017-08-13T18:03:11.026Z,23.24
2017-08-13T18:05:38.695Z,23.16
2017-08-13T18:08:06.341Z,23.16
2017-08-13T18:10:34.046Z,23.09
2017-08-13T18:13:01.646Z,22.96
2017-08-13T18:15:29.334Z,22.84
2017-08-13T18:17:57.152Z,22.87
2017-08-13T18:20:25.045Z,22.86
2017-08-13T18:22:52.954Z,22.83
2017-08-13T18:25:21.022Z,22.77
2017-08-13T18:27:49.071Z,22.75
2017-08-13T18:30:16.912Z,22.81
2017-08-13T18:32:44.928Z,22.85
2017-08-13T18:35:12.659Z,22.90
2017-08-13T18:37:40.543Z,22.87
2017-08-13T18:40:08.625Z,22.86
2017-08-13T18:42:36.696Z,22.80
2017-08-13T18:45:04.429Z,22.74
2017-08-13T18:47:32.508Z,22.71
2017-08-13T18:50:00.366Z,22.72
2017-08-13T18:52:28.255Z,22.67
2017-08-13T18:54:56.157Z,22.63
2017-08-13T18:57:24.092Z,22.64
2017-08-13T18:59:51.937Z,22.54
2017-08-13T19:02:19.626Z,22.54
2017-08-13T19:04:47.495Z,22.58
2017-08-13T19:07:15.161Z,22.53
2017-08-13T19:09:43.246Z,22.48
2017-08-13T19:12:11.193Z,22.46
2017-08-13T19:14:39.225Z,22.49
2017-08-13T19:17:07.593Z,22.53
2017-08-13T19:19:35.315Z,22.53
2017-08-13T19:22:03.741Z,22.58
2017-08-13T19:24:32.051Z,22.54
2017-08-13T19:27:00.640Z,22.56
2017-08-13T19:29:28.511Z,22.64
2017-08-13T19:31:56.580Z,22.69
2017-08-13T19:34:24.601Z,22.76
2017-08-13T19:36:52.502Z,22.74
2017-08-13T19:39:20.387Z,22.69
2017-08-13T19:41:48.371Z,22.70
2017-08-13T19:44:16.454Z,22.68
2017-08-13T19:46:44.493Z,22.67
2017-08-13T19:49:12.590Z,22.55
2017-08-13T19:51:40.670Z,22.54
2017-08-13T19:54:08.506Z,22.34
2017-08-13T19:56:36.218Z,22.35
2017-08-13T19:59:03.908Z,22.30
2017-08-13T20:01:31.899Z,22.22
2017-08-13T20:03:59.800Z,22.18
2017-08-13T20:06:27.509Z,22.18
2017-08-13T20:08:55.523Z,22.18
2017-08-13T20:11:23.598Z,22.29
2017-08-13T20:13:51.432Z,22.36
2017-08-13T20:16:19.329Z,22.39
2017-08-13T20:18:47.487Z,22.43
2017-08-13T20:21:15.434Z,22.49
2017-08-13T20:23:43.535Z,22.63
2017-08-13T20:26:11.232Z,22.54
2017-08-13T20:28:38.857Z,22.46
2017-08-13T20:31:06.695Z,22.39
2017-08-13T20:33:34.744Z,22.29
2017-08-13T20:36:02.666Z,22.33
2017-08-13T20:38:30.739Z,22.38
2017-08-13T20:40:58.379Z,22.44
2017-08-13T20:43:26.231Z,22.42
2017-08-13T20:45:53.927Z,22.47
2017-08-13T20:48:21.586Z,22.46
2017-08-13T20:50:49.521Z,22.44
2017-08-13T20:53:17.317Z,22.36
2017-08-13T20:55:45.141Z,22.34
2017-08-13T20:58:12.881Z,22.36
2017-08-13T21:00:40.711Z,22.37
2017-08-13T21:03:08.573Z,22.36
2017-08-13T21:05:36.247Z,22.30
2017-08-13T21:08:03.960Z,22.22
2017-08-13T21:10:31.926Z,22.13
2017-08-13T21:12:59.768Z,22.21
2017-08-13T21:15:27.509Z,22.15
2017-08-13T21:17:55.349Z,22.16
2017-08-13T21:20:23.219Z,22.22
2017-08-13T21:22:50.904Z,22.24
2017-08-13T21:25:18.563Z,22.20
2017-08-13T21:27:46.230Z,21.93
2017-08-13T21:30:14.057Z,21.98
2017-08-13T21:32:41.651Z,21.90
2017-08-13T21:35:09.419Z,21.92
2017-08-13T21:37:37.390Z,21.96
2017-08-13T21:40:05.359Z,21.88
2017-08-13T21:42:33.022Z,21.88
2017-08-13T21:45:01.689Z,21.77
2017-08-13T21:47:29.365Z,21.67
2017-08-13T21:49:57.100Z,21.65
2017-08-13T21:52:24.895Z,21.61
2017-08-13T21:54:52.560Z,21.65
2017-08-13T21:57:20.401Z,21.60
2017-08-13T21:59:48.054Z,21.56
2017-08-13T22:02:15.754Z,21.49
2017-08-13T22:04:43.619Z,21.41
2017-08-13T22:07:11.486Z,21.48
2017-08-13T22:09:39.333Z,21.40
2017-08-13T22:12:07.078Z,21.44
2017-08-13T22:14:35.042Z,21.38
2017-08-13T22:17:02.749Z,21.41
2017-08-13T22:19:30.570Z,21.43
2017-08-13T22:21:58.413Z,21.41
2017-08-13T22:24:26.144Z,21.37
2017-08-13T22:26:54.177Z,21.32
2017-08-13T22:29:21.875Z,21.37
2017-08-13T22:31:49.540Z,21.30
2017-08-13T22:34:17.198Z,21.32
2017-08-13T22:36:44.919Z,21.29
2017-08-13T22:39:12.687Z,21.26
2017-08-13T22:41:40.598Z,21.37
2017-08-13T22:44:08.254Z,21.26
2017-08-13T22:46:35.920Z,21.35
2017-08-13T22:49:03.629Z,21.26
2017-08-13T22:51:31.432Z,21.25
2017-08-13T22:53:59.419Z,21.10
2017-08-13T22:56:27.005Z,21.12
2017-08-13T22:58:54.850Z,21.04
2017-08-13T23:01:22.503Z,21.06
2017-08-13T23:03:50.164Z,20.97
2017-08-13T23:06:17.826Z,20.94
2017-08-13T23:08:45.546Z,20.91
2017-08-13T23:11:13.560Z,20.88
2017-08-13T23:13:41.229Z,20.90
2017-08-13T23:16:09.269Z,20.85
2017-08-13T23:18:37.012Z,20.73
2017-08-13T23:21:05.028Z,20.74
2017-08-13T23:23:32.607Z,20.75
2017-08-13T23:26:00.195Z,20.77
2017-08-13T23:28:27.979Z,20.74
2017-08-13T23:30:55.886Z,20.85
2017-08-13T23:33:23.530Z,20.77
2017-08-13T23:35:51.615Z,20.87
2017-08-13T23:38:19.210Z,20.92
2017-08-13T23:40:47.064Z,20.79
2017-08-13T23:43:15.016Z,20.80
2017-08-13T23:45:42.623Z,20.70
2017-08-13T23:48:10.463Z,20.61
2017-08-13T23:50:38.310Z,20.60
2017-08-13T23:53:06.274Z,20.66
2017-08-13T23:55:34.312Z,20.66
2017-08-13T23:58:02.013Z,20.55
